Latest Weather Observations for Gatton

IDQ60801

Issued at 5:32 pm EST Sunday 26 February 2017 (issued every 30 minutes, with the page automatically refreshed every 10 minutes)

About weather observations | Map of weather stations | Latest weather observations for QLD | Other Formats
Station Details ID: 040082 Name: UNIVERSITY OF QUEENSLAND GATTON Lat: -27.54 Lon: 152.34 Height: 89.0 m
Data from the previous 72 hours. | See also: Recent months at Gatton
Date/Time
EST
Temp
°C
App
Temp
°C
Dew
Point
°C
Rel
Hum
%
Delta-T
°C
Wind Press
QNH
hPa
Press
MSL
hPa
Rain since
9am
mm
Dir  Spd
km/h
Gust
km/h
Spd
kts
Gust
kts
26/05:30pm 29.3 26.0 12.7 36 9.8 SE 22 35 12 19 - - 0.0
26/05:00pm 30.1 27.2 13.0 35 10.2 SE 20 32 11 17 - - 0.0
26/04:30pm 30.7 28.1 13.9 36 10.2 SE 20 28 11 15 - - 0.0
26/04:00pm 30.3 27.5 13.1 34 10.3 ESE 20 35 11 19 - - 0.0
26/03:30pm 30.6 28.2 12.5 33 10.7 ESE 17 28 9 15 - - 0.0
26/03:00pm 31.7 28.8 13.0 32 11.2 SSE 20 33 11 18 - - 0.0
26/02:30pm 30.6 27.9 13.0 34 10.5 ESE 19 32 10 17 - - 0.0
26/02:00pm 30.7 28.3 14.3 36 10.0 SSE 20 33 11 18 - - 0.0
26/01:30pm 29.5 26.6 12.9 36 9.8 SSE 20 30 11 16 - - 0.0
26/01:00pm 30.0 27.8 14.5 38 9.4 SSE 19 32 10 17 - - 0.0
26/12:30pm 29.0 28.5 14.8 42 8.7 ESE 11 26 6 14 - - 0.0
26/12:00pm 28.7 26.6 15.2 43 8.3 SE 20 30 11 16 - - 0.0
26/11:30am 28.6 26.8 14.4 41 8.6 ESE 17 22 9 12 - - 0.0
26/11:00am 27.8 25.7 15.1 46 7.7 ESE 20 30 11 16 - - 0.0
26/10:30am 27.2 24.9 14.6 46 7.6 SE 20 32 11 17 - - 0.0
26/10:00am 27.2 25.7 16.2 51 6.8 SSE 19 26 10 14 - - 0.0
26/09:30am 25.8 24.9 15.8 54 6.1 SSE 15 20 8 11 - - 0.0
26/09:00am 25.6 24.4 16.2 56 5.8 SE 17 24 9 13 - - 0.0
26/08:30am 24.3 23.5 16.0 60 5.1 SSE 15 20 8 11 - - 0.0
26/08:00am 23.5 24.0 16.5 65 4.3 SE 9 17 5 9 - - 0.0
26/07:30am 21.7 23.8 16.2 71 3.3 CALM 0 6 0 3 - - 0.0
26/07:00am 20.0 20.8 15.8 77 2.5 W 6 9 3 5 - - 0.0
26/06:30am 18.7 19.5 15.9 84 1.7 W 6 9 3 5 - - 0.0
26/06:00am 17.6 18.2 15.2 86 1.4 WSW 6 7 3 4 - - 0.0
26/05:30am 17.6 19.3 15.2 86 1.4 CALM 0 6 0 3 - - 0.0
26/05:00am 17.7 19.1 15.3 86 1.4 SE 2 7 1 4 - - 0.0
26/04:30am 17.3 18.9 14.9 86 1.4 CALM 0 0 0 0 - - 0.0
26/04:00am 17.2 18.7 14.7 85 1.4 CALM 0 0 0 0 - - 0.0
26/03:30am 17.3 18.7 14.4 83 1.7 CALM 0 0 0 0 - - 0.0
26/03:00am 18.8 19.7 15.1 79 2.2 SSE 4 7 2 4 - - 0.0
26/02:30am 18.4 18.9 14.1 76 2.5 SSE 4 6 2 3 - - 0.0
26/02:00am 19.9 21.1 14.9 73 2.9 SE 2 6 1 3 - - 0.0
26/01:30am 21.2 21.3 15.5 70 3.4 SE 9 15 5 8 - - 0.0
26/01:00am 21.4 21.8 15.3 68 3.6 SE 7 11 4 6 - - 0.0
26/12:30am 22.0 22.1 15.4 66 3.9 ESE 9 15 5 8 - - 0.0
26/12:00am 22.0 22.3 15.1 65 4.1 SE 7 15 4 8 - - 0.0
 
Date/Time
EST
Temp
°C
App
Temp
°C
Dew
Point
°C
Rel
Hum
%
Delta-T
°C
Wind Press
QNH
hPa
Press
MSL
hPa
Rain since
9am
mm
Dir  Spd
km/h
Gust
km/h
Spd
kts
Gust
kts
25/11:30pm 22.0 22.1 15.4 66 3.9 SE 9 11 5 6 - - 0.0
25/11:00pm 22.4 22.6 16.7 70 3.5 ESE 11 15 6 8 - - 0.0
25/10:30pm 21.5 22.4 16.7 74 2.9 NNE 7 9 4 5 - - 0.0
25/10:00pm 22.8 24.0 17.3 71 3.4 ENE 7 11 4 6 - - 0.0
25/09:30pm 23.6 23.9 17.1 67 4.0 ENE 11 15 6 8 - - 0.0
25/09:00pm 24.2 24.2 17.2 65 4.3 ENE 13 17 7 9 - - 0.0
25/08:30pm 24.7 23.9 17.2 63 4.7 ENE 17 24 9 13 - - 0.0
25/08:00pm 25.4 24.7 17.3 61 5.1 ENE 17 22 9 12 - - 0.0
25/07:30pm 25.7 24.7 17.6 61 5.1 E 19 28 10 15 - - 0.0
25/07:00pm 26.5 25.4 17.8 58 5.5 ENE 20 32 11 17 - - 0.0
25/06:30pm 27.3 26.3 18.0 56 5.9 ENE 20 28 11 15 - - 0.0
25/06:00pm 28.5 27.0 17.7 52 6.9 ENE 22 30 12 16 - - 0.0
25/05:30pm 30.5 28.5 15.4 40 9.3 ENE 20 32 11 17 - - 0.0
25/05:00pm 31.9 29.3 13.2 32 11.2 ESE 19 28 10 15 - - 0.0
25/04:30pm 32.0 29.8 13.2 31 11.3 SSE 17 26 9 14 - - 0.0
25/04:00pm 32.3 30.0 13.0 31 11.6 E 17 26 9 14 - - 0.0
25/03:30pm 32.8 32.0 13.9 31 11.5 SE 11 24 6 13 - - 0.0
25/03:00pm 32.3 30.9 13.5 32 11.4 S 13 20 7 11 - - 0.0
25/02:30pm 31.9 30.3 12.7 31 11.5 SE 13 24 7 13 - - 0.0
25/02:00pm 31.8 29.1 11.6 29 11.8 E 17 26 9 14 - - 0.0
25/01:30pm 31.4 28.8 13.2 33 10.9 ESE 19 26 10 14 - - 0.0
25/01:00pm 31.1 28.3 12.5 32 11.0 ESE 19 26 10 14 - - 0.0
25/12:30pm 30.1 27.4 13.0 35 10.2 ENE 19 30 10 16 - - 0.0
25/12:00pm 29.6 29.0 14.6 40 9.1 ESE 11 22 6 12 - - 0.0
25/11:30am 29.3 27.7 13.9 39 9.3 E 15 32 8 17 - - 0.0
25/11:00am 28.7 26.8 14.1 40 8.8 ESE 17 26 9 14 - - 0.0
25/10:30am 27.9 25.7 14.9 45 7.9 E 20 28 11 15 - - 0.0
25/10:00am 27.8 26.4 15.5 47 7.5 E 17 30 9 16 - - 0.0
25/09:30am 27.2 26.3 15.9 50 7.0 SE 15 20 8 11 - - 0.0
25/09:00am 25.4 23.3 15.1 53 6.2 SE 20 28 11 15 - - 0.0
25/08:30am 25.3 23.3 15.6 55 5.9 SE 20 28 11 15 - - 0.0
25/08:00am 24.8 23.1 16.2 58 5.3 E 20 30 11 16 - - 0.0
25/07:30am 23.7 24.1 17.2 67 4.0 SE 11 17 6 9 - - 0.0
25/07:00am 22.4 24.7 17.8 75 2.9 SW 2 7 1 4 - - 0.0
25/06:30am 20.6 23.2 17.4 82 2.0 CALM 0 0 0 0 - - 0.0
25/06:00am 19.8 22.4 17.4 86 1.5 CALM 0 0 0 0 - - 0.0
25/05:30am 20.0 22.6 17.6 86 1.5 CALM 0 0 0 0 - - 0.0
25/05:00am 20.1 22.8 17.7 86 1.5 CALM 0 0 0 0 - - 0.0
25/04:30am 19.7 22.2 17.3 86 1.5 CALM 0 0 0 0 - - 0.0
25/04:00am 19.2 21.5 16.8 86 1.5 CALM 0 0 0 0 - - 0.0
25/03:30am 20.1 22.8 17.7 86 1.5 CALM 0 0 0 0 - - 0.0
25/03:00am 19.9 22.7 17.9 88 1.2 CALM 0 0 0 0 - - 0.0
25/02:30am 19.5 22.0 17.3 87 1.3 CALM 0 0 0 0 - - 0.0
25/02:00am 19.0 20.8 16.4 85 1.6 S 2 6 1 3 - - 0.0
25/01:30am 20.4 21.2 17.4 83 1.8 S 9 11 5 6 - - 0.0
25/01:00am 20.5 21.7 17.3 82 2.0 SSE 7 11 4 6 - - 0.0
25/12:30am 20.6 21.8 17.4 82 2.0 SSE 7 9 4 5 - - 0.0
25/12:00am 21.3 22.3 17.7 80 2.2 SSE 9 11 5 6 - - 0.0
 
Date/Time
EST
Temp
°C
App
Temp
°C
Dew
Point
°C
Rel
Hum
%
Delta-T
°C
Wind Press
QNH
hPa
Press
MSL
hPa
Rain since
9am
mm
Dir  Spd
km/h
Gust
km/h
Spd
kts
Gust
kts
24/11:30pm 21.4 22.8 17.8 80 2.2 SSE 7 11 4 6 - - 0.0
24/11:00pm 21.9 22.6 17.9 78 2.5 SE 11 13 6 7 - - 0.0
24/10:30pm 21.9 23.2 17.5 76 2.7 SE 7 11 4 6 - - 0.0
24/10:00pm 22.5 22.9 17.2 72 3.3 ESE 11 15 6 8 - - 0.0
24/09:30pm 23.1 23.1 17.1 69 3.7 ESE 13 19 7 10 - - 0.0
24/09:00pm 23.3 23.5 16.8 67 4.0 ESE 11 15 6 8 - - 0.0
24/08:30pm 24.3 24.3 17.1 64 4.5 E 13 20 7 11 - - 0.0
24/08:00pm 24.9 24.7 16.6 60 5.1 ENE 13 22 7 12 - - 0.0
24/07:30pm 26.2 24.7 16.7 56 5.9 E 20 30 11 16 - - 0.0
24/07:00pm 26.8 25.2 16.1 52 6.6 ENE 19 24 10 13 - - 0.0
24/06:30pm 28.0 25.8 16.0 48 7.4 ENE 22 30 12 16 - - 0.0
24/06:00pm 29.3 26.9 16.5 46 8.0 ENE 24 32 13 17 - - 0.0
24/05:30pm 31.4 29.6 13.2 33 10.9 NE 15 20 8 11 - - 0.0
24/05:00pm 32.2 31.2 13.4 32 11.4 NE 11 17 6 9 - - 0.0
24/04:30pm 32.5 31.8 13.2 31 11.6 ESE 9 19 5 10 - - 0.0
24/04:00pm 32.5 30.9 12.7 30 11.8 E 13 19 7 10 - - 0.0
24/03:30pm 32.9 31.0 13.0 30 12.0 SE 15 20 8 11 - - 0.0
24/03:00pm 32.6 30.6 13.8 32 11.4 ESE 17 28 9 15 - - 0.0
24/02:30pm 32.0 30.5 13.2 31 11.3 SE 13 20 7 11 - - 0.0
24/02:00pm 31.9 30.2 13.6 32 11.1 SE 15 24 8 13 - - 0.0
24/01:30pm 31.3 29.3 14.0 35 10.5 ENE 17 24 9 13 - - 0.0
24/01:00pm 31.5 30.1 15.5 38 9.9 ENE 17 24 9 13 - - 0.0
24/12:30pm 30.6 29.0 15.1 39 9.5 ESE 17 22 9 12 - - 0.0
24/12:00pm 29.9 28.6 14.8 39 9.2 E 15 24 8 13 - - 0.0
24/11:30am 29.0 28.3 15.5 44 8.3 E 13 24 7 13 - - 0.0
24/11:00am 27.9 27.2 15.5 46 7.6 E 13 24 7 13 - - 0.0
24/10:30am 27.8 26.9 15.8 48 7.4 E 15 22 8 12 - - 0.0
24/10:00am 27.2 27.3 16.5 52 6.6 ESE 11 20 6 11 - - 0.0
24/09:30am 26.7 26.5 16.6 54 6.3 ESE 13 20 7 11 - - 0.0
24/09:00am 25.2 24.7 15.8 56 5.7 ESE 13 19 7 10 - - 0.0
24/08:30am 24.2 24.6 16.2 61 4.9 SSE 9 15 5 8 - - 0.0
24/08:00am 22.7 24.4 17.2 71 3.4 SW 4 9 2 5 - - 0.0
24/07:30am 20.5 21.1 16.9 80 2.2 W 9 13 5 7 - - 0.0
24/07:00am 19.0 19.7 16.2 84 1.7 W 7 11 4 6 - - 0.0
24/06:30am 17.4 17.5 15.4 88 1.2 WSW 9 15 5 8 - - 0.0
24/06:00am 16.1 15.9 14.6 91 0.9 W 9 11 5 6 - - 0.0
24/05:30am 16.1 16.4 15.0 93 0.6 W 7 9 4 5 - - 0.0
24/05:00am 16.3 16.7 15.3 94 0.6 WSW 7 9 4 5 - - 0.0
24/04:30am 15.7 17.2 14.6 93 0.6 CALM 0 0 0 0 - - 0.0
24/04:00am 15.7 16.7 14.2 91 0.9 WSW 2 7 1 4 - - 0.0
24/03:30am 16.4 18.1 15.3 93 0.6 CALM 0 0 0 0 - - 0.0
24/03:00am 16.3 17.9 14.8 91 0.9 CALM 0 0 0 0 - - 0.0
24/02:30am 16.6 18.3 15.1 91 0.9 CALM 0 0 0 0 - - 0.0
24/02:00am 17.3 19.2 15.8 91 0.9 CALM 0 0 0 0 - - 0.0
24/01:30am 17.3 19.0 15.3 88 1.2 CALM 0 0 0 0 - - 0.0
24/01:00am 17.8 19.7 15.8 88 1.2 CALM 0 0 0 0 - - 0.0
24/12:30am 18.2 20.3 16.2 88 1.2 CALM 0 0 0 0 - - 0.0
24/12:00am 18.5 20.1 15.9 85 1.5 W 2 6 1 3 - - 0.0
 
Date/Time
EST
Temp
°C
App
Temp
°C
Dew
Point
°C
Rel
Hum
%
Delta-T
°C
Wind Press
QNH
hPa
Press
MSL
hPa
Rain since
9am
mm
Dir  Spd
km/h
Gust
km/h
Spd
kts
Gust
kts
23/11:30pm 19.3 21.6 16.7 85 1.6 CALM 0 0 0 0 - - 0.0
23/11:00pm 20.0 22.0 16.0 78 2.4 CALM 0 0 0 0 - - 0.0
23/10:30pm 21.2 22.2 16.4 74 2.9 E 6 9 3 5 - - 0.0
23/10:00pm 22.0 21.9 16.9 73 3.1 ENE 13 15 7 8 - - 0.0
23/09:30pm 22.2 22.3 16.5 70 3.5 ENE 11 15 6 8 - - 0.0
23/09:00pm 23.2 22.9 16.5 66 4.1 ENE 13 15 7 8 - - 0.0
23/08:30pm 23.7 23.5 16.7 65 4.3 ENE 13 17 7 9 - - 0.0
23/08:00pm 24.8 23.5 16.8 61 5.0 ENE 19 22 10 12 - - 0.0
23/07:30pm 25.4 25.4 17.3 61 5.1 ENE 13 20 7 11 - - 0.0
23/07:00pm 25.8 25.8 17.2 59 5.4 ENE 13 22 7 12 - - 0.0
23/06:30pm 27.1 25.7 17.0 54 6.3 ENE 20 30 11 16 - - 0.0
23/06:00pm 28.1 26.8 17.3 52 6.8 ENE 20 30 11 16 - - 0.0

Other Formats:

Comma delimited format used in spreadsheet applications
http://www.bom.gov.au/fwo/IDQ60801/IDQ60801.94562.axf

JavaScript Object Notation format (JSON) in row-major order
http://www.bom.gov.au/fwo/IDQ60801/IDQ60801.94562.json